Capistrano Beach, California
Current Conditions -  °F | °C
As of 3:53 PM on Wednesday 26 Nov 2014 (Local Time) from KSNA Reporting Station
Clear Clear  
Wind Chill: 78°   Ceiling: Unl
Heat Index: 78°   Visibility: 10mi
Dew Point: 38°   Wind: 3mph
Humidity: 24%   Direction: 260°W
Pressure: 30.12"   Gusts: NA
Location:  33.46°N, 117.68°W
Report Text: KSNA 262353Z 26003KT 10SM CLR 26/03 A3012 RMK AO2 SLP197 T02560033 10289 20222 56009
Loading
Personal Weather Stations






























Interactive Weather Map New forecast layout! Learn more

10-Day Weather Forecast

Advertisements
Track Severe Weather on mobile